createdAt,value
2022-11-19T00:02:07.840Z,9.18
2022-11-19T00:04:41.878Z,10.35
2022-11-19T00:07:28.824Z,9.48
2022-11-19T00:10:09.815Z,10.32
2022-11-19T00:13:03.765Z,10.60
2022-11-19T00:15:44.797Z,10.90
2022-11-19T00:18:38.800Z,10.43
2022-11-19T00:21:25.806Z,8.98
2022-11-19T00:24:09.805Z,9.60
2022-11-19T00:27:03.802Z,10.20
2022-11-19T00:32:24.873Z,7.60
2022-11-19T00:35:12.792Z,7.57
2022-11-19T00:37:53.873Z,7.25
2022-11-19T00:40:34.784Z,7.03
2022-11-19T00:43:34.575Z,8.05
2022-11-19T00:46:15.792Z,7.60
2022-11-19T00:48:57.987Z,6.93
2022-11-19T00:51:38.783Z,8.20
2022-11-19T00:55:02.827Z,7.05
2022-11-19T00:57:55.719Z,7.05
2022-11-19T01:00:43.861Z,6.68
2022-11-19T01:03:17.805Z,6.38
2022-11-19T01:06:05.820Z,5.07
2022-11-19T01:08:40.007Z,4.53
2022-11-19T01:11:32.826Z,6.25
2022-11-19T01:14:44.788Z,5.45
2022-11-19T01:17:31.819Z,6.65
2022-11-19T01:20:05.913Z,4.55
2022-11-19T01:23:30.805Z,3.20
2022-11-19T01:26:22.902Z,2.92
2022-11-19T01:29:09.794Z,2.83
2022-11-19T01:31:43.962Z,2.67
2022-11-19T01:34:30.809Z,2.90
2022-11-19T01:37:04.890Z,2.05
2022-11-19T01:39:51.807Z,2.17
2022-11-19T01:42:56.791Z,2.38
2022-11-19T01:46:00.836Z,2.50
2022-11-19T01:48:57.792Z,2.50
2022-11-19T01:52:02.809Z,2.90
2022-11-19T01:54:37.849Z,3.03
2022-11-19T01:57:25.824Z,2.90
2022-11-19T02:00:36.668Z,2.03
2022-11-19T02:03:42.795Z,2.47
2022-11-19T02:06:24.808Z,2.63
2022-11-19T02:10:07.786Z,4.20
2022-11-19T02:13:15.887Z,4.18
2022-11-19T02:16:19.809Z,3.15
2022-11-19T02:19:22.873Z,2.65
2022-11-19T02:22:22.791Z,4.32
2022-11-19T02:25:08.893Z,4.90
2022-11-19T02:28:14.795Z,5.45
2022-11-19T02:31:28.872Z,5.20
2022-11-19T02:34:28.798Z,5.13
2022-11-19T02:37:47.842Z,5.63
2022-11-19T02:41:36.814Z,5.40
2022-11-19T02:44:35.832Z,3.80
2022-11-19T02:47:35.778Z,3.90
2022-11-19T02:50:24.843Z,4.25
2022-11-19T02:53:05.798Z,4.43
2022-11-19T02:56:12.800Z,4.00
2022-11-19T02:59:37.803Z,5.32
2022-11-19T03:02:44.813Z,4.43
2022-11-19T03:06:20.805Z,5.05
2022-11-19T03:09:30.809Z,4.90
2022-11-19T03:12:26.811Z,3.60
2022-11-19T03:16:04.819Z,2.95
2022-11-19T03:19:10.801Z,2.90
2022-11-19T03:22:10.821Z,3.58
2022-11-19T03:25:08.817Z,3.00
2022-11-19T03:27:57.807Z,2.75
2022-11-19T03:30:31.878Z,2.75
2022-11-19T03:33:39.853Z,2.92
2022-11-19T03:36:37.888Z,2.47
2022-11-19T03:39:26.808Z,2.47
2022-11-19T03:42:07.898Z,2.80
2022-11-19T03:44:58.804Z,3.47
2022-11-19T03:47:42.926Z,2.33
2022-11-19T03:50:30.854Z,3.90
2022-11-19T03:53:12.038Z,3.72
2022-11-19T03:55:54.814Z,3.22
2022-11-19T03:58:35.902Z,3.97
2022-11-19T04:01:16.857Z,3.45
2022-11-19T04:04:22.840Z,3.45
2022-11-19T04:06:56.765Z,3.25
2022-11-19T04:10:39.812Z,3.03
2022-11-19T04:13:37.819Z,2.53
2022-11-19T04:16:18.909Z,3.35
2022-11-19T04:19:05.825Z,3.20
2022-11-19T04:21:39.985Z,3.78
2022-11-19T04:24:27.807Z,3.08
2022-11-19T04:27:01.911Z,4.10
2022-11-19T04:29:48.822Z,4.80
2022-11-19T04:32:22.866Z,5.00
2022-11-19T04:35:10.870Z,4.90
2022-11-19T04:37:51.813Z,5.70
2022-11-19T04:40:45.791Z,5.75
2022-11-19T04:43:32.834Z,6.00
2022-11-19T04:46:06.867Z,6.05
2022-11-19T04:48:53.809Z,6.95
2022-11-19T04:51:34.827Z,6.53
2022-11-19T04:54:28.816Z,6.60
2022-11-19T05:00:03.806Z,6.47
2022-11-19T05:02:51.814Z,7.45
2022-11-19T05:05:25.945Z,7.57
2022-11-19T05:08:31.824Z,7.55
2022-11-19T05:11:05.951Z,7.75
2022-11-19T05:13:52.842Z,7.75
2022-11-19T05:16:54.881Z,9.20
2022-11-19T05:19:42.828Z,9.38
2022-11-19T05:22:16.990Z,10.13
2022-11-19T05:25:03.818Z,10.75
2022-11-19T05:27:37.961Z,8.95
2022-11-19T05:30:25.816Z,9.38
2022-11-19T05:32:59.869Z,9.20
2022-11-19T05:35:46.855Z,9.65
2022-11-19T05:38:27.827Z,9.48
2022-11-19T05:41:21.803Z,9.65
2022-11-19T05:44:09.822Z,9.02
2022-11-19T05:46:43.894Z,9.82
2022-11-19T05:49:30.815Z,10.00
2022-11-19T05:52:04.877Z,9.35
2022-11-19T05:54:51.831Z,8.55
2022-11-19T05:57:32.820Z,9.38
2022-11-19T06:00:27.813Z,9.57
2022-11-19T06:03:15.855Z,9.35
2022-11-19T06:05:49.889Z,9.30
2022-11-19T06:08:36.843Z,9.30
2022-11-19T06:11:37.828Z,9.52
2022-11-19T06:14:30.831Z,8.57
2022-11-19T06:17:05.953Z,9.38
2022-11-19T06:19:52.823Z,8.32
2022-11-19T06:22:40.816Z,8.75
2022-11-19T06:25:14.875Z,8.85
2022-11-19T06:27:55.812Z,9.18
2022-11-19T06:30:50.806Z,11.60
2022-11-19T06:33:37.818Z,8.93
2022-11-19T06:36:11.903Z,9.27
2022-11-19T06:38:59.867Z,9.15
2022-11-19T06:41:33.970Z,9.95
2022-11-19T06:44:21.819Z,9.63
2022-11-19T06:46:55.893Z,10.60
2022-11-19T06:49:42.836Z,10.70
2022-11-19T06:52:16.904Z,11.20
2022-11-19T06:55:03.852Z,10.20
2022-11-19T06:57:37.974Z,11.38
2022-11-19T07:00:25.892Z,10.32
2022-11-19T07:03:06.838Z,9.10
2022-11-19T07:06:01.869Z,8.43
2022-11-19T07:08:49.815Z,9.18
2022-11-19T07:11:26.833Z,9.20
2022-11-19T07:16:47.915Z,9.27
2022-11-19T07:19:35.818Z,9.10
2022-11-19T07:22:16.896Z,7.30
2022-11-19T07:24:56.907Z,10.27
2022-11-19T07:27:37.888Z,8.82
2022-11-19T07:30:18.826Z,7.47
2022-11-19T07:33:07.843Z,10.52
2022-11-19T07:35:41.818Z,8.98
2022-11-19T07:38:35.654Z,8.23
2022-11-19T07:41:29.313Z,8.13
2022-11-19T07:44:16.830Z,8.20
2022-11-19T07:46:56.810Z,8.43
2022-11-19T07:49:37.910Z,9.80
2022-11-19T07:52:17.847Z,8.57
2022-11-19T07:54:58.924Z,8.90
2022-11-19T07:57:39.838Z,8.85
2022-11-19T08:00:20.886Z,8.20
2022-11-19T08:03:00.834Z,6.57
2022-11-19T08:05:42.062Z,7.30
2022-11-19T08:08:21.792Z,6.40
2022-11-19T08:11:09.822Z,8.13
2022-11-19T08:13:43.854Z,8.48
2022-11-19T08:16:49.836Z,7.40
2022-11-19T08:19:36.840Z,8.02
2022-11-19T08:22:17.830Z,8.10
2022-11-19T08:25:11.829Z,8.38
2022-11-19T08:27:58.817Z,9.73
2022-11-19T08:30:32.999Z,8.15
2022-11-19T08:33:20.829Z,8.18
2022-11-19T08:35:55.485Z,8.35
2022-11-19T08:38:41.839Z,8.93
2022-11-19T08:41:40.808Z,11.23
2022-11-19T08:44:27.830Z,11.30
2022-11-19T08:47:08.829Z,10.45
2022-11-19T08:50:02.805Z,10.93
2022-11-19T08:55:23.839Z,8.73
2022-11-19T08:58:04.828Z,12.00
2022-11-19T09:00:45.949Z,10.65
2022-11-19T09:03:33.822Z,9.82
2022-11-19T09:06:14.809Z,9.43
2022-11-19T09:08:55.937Z,11.43
2022-11-19T09:11:41.198Z,9.90
2022-11-19T09:14:22.990Z,8.88
2022-11-19T09:17:02.822Z,9.60
2022-11-19T09:19:43.922Z,9.43
2022-11-19T09:22:24.840Z,10.10
2022-11-19T09:25:05.963Z,9.13
2022-11-19T09:27:46.842Z,8.27
2022-11-19T09:30:34.876Z,10.10
2022-11-19T09:33:15.818Z,9.05
2022-11-19T09:35:56.985Z,10.85
2022-11-19T09:38:43.817Z,8.85
2022-11-19T09:41:24.931Z,10.15
2022-11-19T09:44:37.814Z,10.85
2022-11-19T09:47:24.060Z,17.98
2022-11-19T09:50:17.843Z,20.48
2022-11-19T09:53:03.930Z,15.48
2022-11-19T09:55:49.819Z,23.48
2022-11-19T09:58:37.916Z,28.58
2022-11-19T10:01:20.856Z,16.17
2022-11-19T10:04:02.166Z,26.73
2022-11-19T10:06:46.860Z,40.13
2022-11-19T10:09:45.942Z,41.10
2022-11-19T10:12:26.815Z,26.48
2022-11-19T10:15:37.345Z,36.78
2022-11-19T10:18:28.840Z,32.85
2022-11-19T10:21:11.944Z,31.20
2022-11-19T10:24:00.867Z,23.58
2022-11-19T10:26:45.903Z,17.58
2022-11-19T10:29:28.847Z,22.38
2022-11-19T10:32:28.035Z,10.82
2022-11-19T10:35:14.831Z,9.73
2022-11-19T10:38:08.895Z,11.88
2022-11-19T10:40:56.831Z,12.43
2022-11-19T10:43:37.903Z,14.43
2022-11-19T10:46:21.844Z,13.07
2022-11-19T10:49:12.852Z,11.77
2022-11-19T10:51:46.824Z,11.88
2022-11-19T10:54:39.822Z,11.57
2022-11-19T10:57:35.818Z,13.25
2022-11-19T11:00:24.877Z,14.38
2022-11-19T11:03:13.864Z,12.95
2022-11-19T11:06:12.824Z,12.52
2022-11-19T11:09:01.863Z,10.88
2022-11-19T11:12:04.868Z,14.45
2022-11-19T11:14:52.089Z,13.32
2022-11-19T11:17:42.821Z,19.52
2022-11-19T11:20:20.274Z,15.70
2022-11-19T11:23:17.840Z,30.30
2022-11-19T11:26:03.866Z,23.55
2022-11-19T11:29:17.103Z,17.23
2022-11-19T11:31:52.698Z,31.27
2022-11-19T11:34:43.505Z,19.77
2022-11-19T11:37:17.792Z,44.60
2022-11-19T11:40:07.838Z,26.13
2022-11-19T11:45:35.850Z,13.50
2022-11-19T11:48:18.655Z,14.10
2022-11-19T11:51:05.853Z,13.43
2022-11-19T11:53:39.886Z,17.85
2022-11-19T11:56:34.826Z,15.50
2022-11-19T11:59:28.850Z,14.50
2022-11-19T12:02:11.942Z,12.18
2022-11-19T12:04:51.845Z,15.55
2022-11-19T12:07:51.897Z,16.35
2022-11-19T12:10:51.854Z,18.23
2022-11-19T12:13:48.839Z,16.30
2022-11-19T12:16:28.109Z,15.18
2022-11-19T12:19:33.843Z,14.70
2022-11-19T12:22:24.842Z,16.90
2022-11-19T12:25:13.932Z,12.93
2022-11-19T12:28:05.847Z,14.93
2022-11-19T12:30:52.915Z,16.30
2022-11-19T12:33:41.861Z,19.80
2022-11-19T12:36:51.852Z,12.75
2022-11-19T12:39:38.557Z,16.02
2022-11-19T12:42:33.866Z,14.93
2022-11-19T12:45:28.864Z,16.73
2022-11-19T12:48:21.834Z,16.45
2022-11-19T12:51:07.911Z,15.32
2022-11-19T12:54:01.829Z,17.67
2022-11-19T12:56:47.104Z,15.52
2022-11-19T12:59:34.852Z,17.65
2022-11-19T13:02:25.980Z,15.73
2022-11-19T13:05:18.855Z,16.02
2022-11-19T13:08:03.844Z,17.10
2022-11-19T13:10:50.985Z,13.05
2022-11-19T13:13:33.851Z,13.98
2022-11-19T13:16:29.848Z,16.77
2022-11-19T13:19:25.850Z,26.35
2022-11-19T13:22:21.846Z,19.63
2022-11-19T13:25:04.933Z,13.60
2022-11-19T13:27:45.822Z,12.77
2022-11-19T13:30:33.591Z,15.10
2022-11-19T13:33:25.835Z,14.65
2022-11-19T13:36:17.840Z,13.20
2022-11-19T13:39:05.960Z,13.70
2022-11-19T13:42:14.881Z,17.02
2022-11-19T13:44:48.940Z,12.10
2022-11-19T13:47:43.848Z,14.60
2022-11-19T13:50:28.933Z,14.93
2022-11-19T13:53:13.836Z,13.98
2022-11-19T13:55:54.939Z,13.65
2022-11-19T13:58:38.872Z,15.07
2022-11-19T14:01:37.938Z,12.80
2022-11-19T14:04:52.851Z,14.30
2022-11-19T14:07:37.704Z,15.02
2022-11-19T14:10:32.864Z,13.05
2022-11-19T14:13:13.941Z,12.93
2022-11-19T14:16:12.855Z,13.70
2022-11-19T14:19:14.493Z,16.50
2022-11-19T14:22:15.848Z,15.90
2022-11-19T14:25:15.644Z,15.68
2022-11-19T14:28:01.857Z,17.08
2022-11-19T14:31:09.009Z,16.70
2022-11-19T14:33:55.875Z,14.45
2022-11-19T14:36:32.943Z,16.05
2022-11-19T14:39:24.862Z,17.45
2022-11-19T14:42:31.900Z,14.63
2022-11-19T14:45:25.838Z,16.80
2022-11-19T14:50:46.908Z,14.70
2022-11-19T14:53:33.856Z,14.90
2022-11-19T14:56:08.933Z,13.18
2022-11-19T14:59:01.871Z,14.20
2022-11-19T15:01:35.938Z,13.85
2022-11-19T15:04:23.843Z,14.80
2022-11-19T15:06:58.985Z,12.77
2022-11-19T15:10:13.861Z,10.88
2022-11-19T15:13:02.856Z,15.07
2022-11-19T15:15:48.842Z,17.42
2022-11-19T15:18:54.877Z,15.40
2022-11-19T15:21:41.863Z,14.50
2022-11-19T15:24:41.854Z,13.75
2022-11-19T15:27:42.857Z,15.82
2022-11-19T15:30:27.909Z,13.68
2022-11-19T15:33:14.869Z,14.55
2022-11-19T15:36:14.874Z,19.73
2022-11-19T15:39:11.856Z,19.73
2022-11-19T15:42:07.871Z,19.50
2022-11-19T15:44:55.944Z,17.13
2022-11-19T15:48:15.830Z,14.80
2022-11-19T15:50:57.845Z,14.50
2022-11-19T15:53:44.851Z,16.80
2022-11-19T15:56:19.937Z,10.40
2022-11-19T15:59:08.879Z,11.68
2022-11-19T16:01:42.994Z,10.32
2022-11-19T16:04:30.871Z,8.57
2022-11-19T16:07:11.950Z,12.48
2022-11-19T16:10:06.847Z,9.95
2022-11-19T16:13:19.890Z,11.68
2022-11-19T16:16:13.551Z,12.60
2022-11-19T16:18:59.859Z,14.00
2022-11-19T16:21:38.982Z,14.23
2022-11-19T16:24:45.875Z,13.93
2022-11-19T16:27:26.082Z,11.05
2022-11-19T16:30:13.850Z,8.65
2022-11-19T16:32:47.938Z,12.98
2022-11-19T16:35:37.871Z,11.00
2022-11-19T16:41:18.840Z,14.15
2022-11-19T16:43:52.949Z,11.07
2022-11-19T16:46:41.889Z,12.57
2022-11-19T16:49:46.844Z,10.47
2022-11-19T16:52:33.367Z,12.38
2022-11-19T16:55:32.854Z,10.77
2022-11-19T16:58:17.784Z,8.90
2022-11-19T17:01:09.910Z,13.50
2022-11-19T17:03:43.931Z,12.98
2022-11-19T17:06:35.868Z,14.43
2022-11-19T17:09:29.224Z,14.40
2022-11-19T17:12:25.888Z,11.25
2022-11-19T17:15:00.597Z,10.68
2022-11-19T17:17:54.863Z,9.40
2022-11-19T17:20:29.502Z,7.85
2022-11-19T17:23:22.869Z,11.55
2022-11-19T17:26:01.705Z,10.70
2022-11-19T17:28:55.854Z,9.50
2022-11-19T17:31:29.806Z,7.75
2022-11-19T17:34:21.070Z,10.73
2022-11-19T17:36:54.870Z,11.45
2022-11-19T17:39:42.848Z,11.35
2022-11-19T17:42:41.860Z,11.55
2022-11-19T17:45:22.957Z,7.00
2022-11-19T17:48:02.834Z,8.93
2022-11-19T17:50:43.993Z,9.10
2022-11-19T17:53:24.839Z,9.90
2022-11-19T17:56:07.920Z,11.43
2022-11-19T17:58:47.864Z,8.93
2022-11-19T18:01:28.994Z,11.77
2022-11-19T18:04:08.932Z,15.13
2022-11-19T18:06:49.972Z,12.82
2022-11-19T18:09:34.647Z,13.07
2022-11-19T18:12:20.940Z,10.65
2022-11-19T18:15:02.244Z,11.30
2022-11-19T18:17:42.946Z,12.27
2022-11-19T18:20:23.871Z,9.10
2022-11-19T18:23:04.945Z,10.55
2022-11-19T18:25:47.836Z,9.75
2022-11-19T18:28:28.951Z,9.73
2022-11-19T18:31:08.850Z,9.02
2022-11-19T18:33:50.083Z,9.00
2022-11-19T18:36:31.887Z,7.07
2022-11-19T18:39:12.922Z,8.27
2022-11-19T18:41:53.875Z,10.75
2022-11-19T18:44:35.078Z,10.40
2022-11-19T18:47:16.869Z,7.45
2022-11-19T18:49:57.929Z,8.95
2022-11-19T18:52:37.895Z,8.40
2022-11-19T18:55:18.927Z,8.38
2022-11-19T18:57:59.852Z,8.45
2022-11-19T19:00:40.930Z,8.80
2022-11-19T19:03:21.854Z,9.23
2022-11-19T19:06:09.851Z,7.50
2022-11-19T19:08:45.212Z,7.78
2022-11-19T19:11:50.844Z,8.40
2022-11-19T19:14:24.820Z,8.13
2022-11-19T19:17:12.854Z,7.97
2022-11-19T19:19:46.967Z,8.38
2022-11-19T19:22:34.844Z,9.60
2022-11-19T19:25:09.202Z,7.70
2022-11-19T19:27:56.871Z,7.63
2022-11-19T19:30:30.886Z,7.18
2022-11-19T19:33:22.241Z,7.55
2022-11-19T19:35:55.796Z,7.22
2022-11-19T19:38:43.841Z,7.07
2022-11-19T19:41:27.851Z,9.05
2022-11-19T19:44:11.088Z,7.30
2022-11-19T19:46:53.882Z,9.07
2022-11-19T19:49:38.878Z,7.90
2022-11-19T19:52:18.887Z,9.75
2022-11-19T19:55:06.870Z,7.50
2022-11-19T19:57:40.794Z,8.57
2022-11-19T20:00:29.861Z,11.35
2022-11-19T20:03:03.804Z,9.13
2022-11-19T20:05:51.868Z,10.60
2022-11-19T20:08:32.857Z,9.32
2022-11-19T20:11:29.082Z,10.95
2022-11-19T20:14:02.787Z,9.63
2022-11-19T20:16:54.860Z,10.90
2022-11-19T20:19:34.872Z,8.55
2022-11-19T20:22:15.914Z,10.82
2022-11-19T20:24:55.883Z,10.82
2022-11-19T20:27:43.866Z,11.35
2022-11-19T20:30:24.843Z,11.55
2022-11-19T20:33:08.262Z,12.80
2022-11-19T20:35:56.857Z,18.50
2022-11-19T20:38:45.895Z,13.13
2022-11-19T20:41:45.904Z,12.10
2022-11-19T20:44:26.948Z,13.90
2022-11-19T20:47:10.876Z,11.27
2022-11-19T20:49:51.925Z,13.90
2022-11-19T20:52:32.113Z,11.05
2022-11-19T20:55:12.921Z,14.48
2022-11-19T20:57:52.870Z,15.35
2022-11-19T21:00:41.867Z,20.08
2022-11-19T21:03:21.894Z,8.63
2022-11-19T21:06:10.862Z,12.00
2022-11-19T21:08:44.788Z,13.88
2022-11-19T21:11:32.885Z,12.93
2022-11-19T21:14:13.846Z,12.48
2022-11-19T21:17:01.910Z,10.98
2022-11-19T21:19:35.945Z,11.55
2022-11-19T21:22:23.882Z,14.07
2022-11-19T21:24:57.870Z,12.25
2022-11-19T21:27:45.897Z,11.85
2022-11-19T21:30:19.992Z,12.43
2022-11-19T21:33:07.941Z,11.82
2022-11-19T21:35:47.957Z,12.07
2022-11-19T21:38:36.878Z,11.60
2022-11-19T21:41:10.800Z,13.00
2022-11-19T21:43:58.884Z,12.23
2022-11-19T21:46:45.875Z,12.25
2022-11-19T21:49:20.344Z,11.75
2022-11-19T21:52:06.855Z,12.23
2022-11-19T21:54:40.977Z,12.77
2022-11-19T21:57:29.879Z,12.35
2022-11-19T22:00:10.855Z,12.30
2022-11-19T22:03:05.857Z,10.18
2022-11-19T22:05:52.873Z,13.07
2022-11-19T22:08:26.941Z,13.30
2022-11-19T22:11:33.851Z,13.18
2022-11-19T22:14:16.877Z,11.88
2022-11-19T22:17:11.858Z,11.93
2022-11-19T22:19:58.872Z,13.20
2022-11-19T22:22:39.897Z,12.30
2022-11-19T22:25:33.921Z,11.45
2022-11-19T22:28:21.834Z,11.88
2022-11-19T22:30:59.593Z,12.48
2022-11-19T22:33:49.870Z,13.20
2022-11-19T22:36:30.905Z,12.00
2022-11-19T22:39:24.860Z,13.05
2022-11-19T22:44:46.103Z,10.52
2022-11-19T22:47:32.872Z,14.57
2022-11-19T22:50:06.933Z,13.48
2022-11-19T22:52:53.875Z,12.88
2022-11-19T22:55:34.937Z,13.18
2022-11-19T22:58:21.893Z,13.02
2022-11-19T23:01:02.955Z,12.43
2022-11-19T23:03:56.865Z,12.95
2022-11-19T23:06:43.850Z,13.40
2022-11-19T23:09:18.055Z,13.68
2022-11-19T23:12:23.869Z,14.35
2022-11-19T23:15:04.898Z,14.40
2022-11-19T23:17:58.867Z,14.82
2022-11-19T23:23:19.950Z,13.52
2022-11-19T23:26:03.920Z,12.75
2022-11-19T23:28:45.010Z,13.05
2022-11-19T23:31:26.886Z,14.73
2022-11-19T23:34:01.838Z,16.05
2022-11-19T23:36:52.882Z,15.18
2022-11-19T23:39:26.812Z,13.93
2022-11-19T23:42:07.873Z,12.90
2022-11-19T23:44:42.070Z,13.65
2022-11-19T23:47:21.924Z,12.68
2022-11-19T23:50:09.866Z,13.52
2022-11-19T23:52:43.819Z,13.07
2022-11-19T23:55:31.904Z,13.73
2022-11-19T23:58:05.924Z,12.70
